Time,TemperatureF,DewpointF,PressureIn,WindDirection,WindDirectionDegrees,WindSpeedMPH,WindSpeedGustMPH,Humidity,HourlyPrecipIn,Conditions,Clouds,dailyrainin,SoftwareType,DateUTC
2013-09-05 00:00:00,73.9,71.7,29.97,ENE,76,0.0,0.0,93,0.00,,,1.63,Wunderground v.1.15,2013-09-05 04:00:00,
2013-09-05 00:10:00,73.7,71.5,29.97,ENE,76,0.0,0.0,93,0.00,,,1.63,Wunderground v.1.15,2013-09-05 04:10:00,
2013-09-05 00:20:00,73.7,71.5,29.97,ENE,76,0.0,0.0,93,0.00,,,1.63,Wunderground v.1.15,2013-09-05 04:20:00,
2013-09-05 00:30:00,73.5,71.4,29.97,ENE,76,0.0,0.0,93,0.00,,,0.00,Wunderground v.1.15,2013-09-05 04:30:00,
2013-09-05 00:40:00,73.5,71.4,29.97,ENE,76,0.0,0.0,93,0.00,,,0.00,Wunderground v.1.15,2013-09-05 04:40:00,
2013-09-05 00:50:00,73.5,71.4,29.97,ENE,76,0.0,0.0,93,0.00,,,0.00,Wunderground v.1.15,2013-09-05 04:50:00,
2013-09-05 01:00:00,73.5,71.4,29.95,ENE,76,0.0,0.0,93,0.00,,,0.00,Wunderground v.1.15,2013-09-05 05:00:00,
2013-09-05 01:10:00,73.5,71.4,29.95,ENE,76,0.0,0.0,93,0.00,,,0.00,Wunderground v.1.15,2013-09-05 05:10:00,
2013-09-05 01:20:00,73.3,71.2,29.95,ENE,76,0.0,0.0,93,0.00,,,0.00,Wunderground v.1.15,2013-09-05 05:20:00,
2013-09-05 01:30:00,73.3,71.2,29.95,ENE,76,0.0,0.0,93,0.00,,,0.00,Wunderground v.1.15,2013-09-05 05:30:00,
2013-09-05 01:40:00,73.3,71.2,29.95,ENE,76,0.0,0.0,93,0.00,,,0.00,Wunderground v.1.15,2013-09-05 05:40:00,
2013-09-05 01:50:00,73.3,71.2,29.95,ENE,76,0.0,0.0,93,0.00,,,0.00,Wunderground v.1.15,2013-09-05 05:50:00,
2013-09-05 02:00:00,73.3,71.2,29.94,ENE,76,0.0,0.0,93,0.00,,,0.00,Wunderground v.1.15,2013-09-05 06:00:00,
2013-09-05 02:10:00,73.3,71.2,29.93,ENE,76,0.0,0.0,93,0.00,,,0.00,Wunderground v.1.15,2013-09-05 06:10:00,
2013-09-05 02:20:00,73.3,71.2,29.93,ENE,76,0.0,0.0,93,0.00,,,0.00,Wunderground v.1.15,2013-09-05 06:20:00,
2013-09-05 02:30:00,73.3,71.2,29.93,ENE,76,0.0,0.0,93,0.00,,,0.00,Wunderground v.1.15,2013-09-05 06:30:00,
2013-09-05 02:40:00,73.3,71.2,29.93,ENE,76,0.0,0.0,93,0.00,,,0.00,Wunderground v.1.15,2013-09-05 06:40:00,
2013-09-05 02:50:00,73.3,71.2,29.93,ENE,76,0.0,0.0,93,0.00,,,0.00,Wunderground v.1.15,2013-09-05 06:50:00,
2013-09-05 03:00:00,73.5,71.4,29.93,ENE,76,0.0,0.0,93,0.00,,,0.00,Wunderground v.1.15,2013-09-05 07:00:00,
2013-09-05 03:10:00,73.5,71.4,29.93,ENE,76,0.0,0.0,93,0.00,,,0.00,Wunderground v.1.15,2013-09-05 07:10:00,
2013-09-05 03:20:00,73.5,71.4,29.93,ENE,76,0.0,0.0,93,0.00,,,0.00,Wunderground v.1.15,2013-09-05 07:20:00,
2013-09-05 03:30:00,73.5,71.4,29.93,ENE,76,0.0,0.0,93,0.00,,,0.00,Wunderground v.1.15,2013-09-05 07:30:00,
2013-09-05 03:40:00,73.5,71.4,29.93,ENE,76,0.0,0.0,93,0.00,,,0.00,Wunderground v.1.15,2013-09-05 07:40:00,
2013-09-05 03:50:00,73.5,71.4,29.93,ENE,76,0.0,0.0,93,0.00,,,0.00,Wunderground v.1.15,2013-09-05 07:50:00,
2013-09-05 04:00:00,73.5,71.4,29.93,ENE,76,0.0,0.0,93,0.00,,,0.00,Wunderground v.1.15,2013-09-05 08:00:00,
2013-09-05 04:10:00,73.3,71.2,29.93,ENE,76,0.0,0.0,93,0.00,,,0.00,Wunderground v.1.15,2013-09-05 08:10:00,
2013-09-05 04:20:00,73.3,71.2,29.93,ENE,76,0.0,0.0,93,0.00,,,0.00,Wunderground v.1.15,2013-09-05 08:20:00,
2013-09-05 04:30:00,73.3,71.2,29.93,ENE,76,0.0,0.0,93,0.00,,,0.00,Wunderground v.1.15,2013-09-05 08:30:00,
2013-09-05 04:40:00,73.2,71.1,29.93,ENE,76,0.0,0.0,93,0.00,,,0.00,Wunderground v.1.15,2013-09-05 08:40:00,
2013-09-05 04:50:00,73.2,71.1,29.93,ENE,76,0.0,0.0,93,0.00,,,0.00,Wunderground v.1.15,2013-09-05 08:50:00,
2013-09-05 05:00:00,73.2,71.1,29.93,ENE,76,0.0,0.0,93,0.00,,,0.00,Wunderground v.1.15,2013-09-05 09:00:00,
2013-09-05 05:10:00,73.0,70.9,29.93,ENE,76,0.0,0.0,93,0.00,,,0.00,Wunderground v.1.15,2013-09-05 09:10:00,
2013-09-05 05:20:00,72.8,70.7,29.93,ENE,76,0.0,0.0,93,0.00,,,0.00,Wunderground v.1.15,2013-09-05 09:20:00,
2013-09-05 05:30:00,72.7,70.6,29.93,ENE,76,0.0,0.0,93,0.00,,,0.00,Wunderground v.1.15,2013-09-05 09:30:00,
2013-09-05 05:40:00,72.7,70.6,29.94,ENE,76,0.0,0.0,93,0.00,,,0.00,Wunderground v.1.15,2013-09-05 09:40:00,
2013-09-05 05:50:00,72.5,70.4,29.94,ENE,76,0.0,0.0,93,0.00,,,0.00,Wunderground v.1.15,2013-09-05 09:50:00,
2013-09-05 06:00:00,72.7,70.6,29.94,ENE,76,0.0,0.0,93,0.00,,,0.00,Wunderground v.1.15,2013-09-05 10:00:00,
2013-09-05 06:10:00,72.8,70.7,29.94,ENE,76,0.0,0.0,93,0.00,,,0.00,Wunderground v.1.15,2013-09-05 10:10:00,
2013-09-05 06:20:00,72.7,70.6,29.94,ENE,76,0.0,0.0,93,0.00,,,0.00,Wunderground v.1.15,2013-09-05 10:20:00,
2013-09-05 06:30:00,72.7,70.6,29.95,ENE,76,0.0,0.0,93,0.00,,,0.00,Wunderground v.1.15,2013-09-05 10:30:00,
2013-09-05 06:40:00,72.5,70.4,29.95,ENE,76,0.0,0.0,93,0.00,,,0.00,Wunderground v.1.15,2013-09-05 10:40:00,
2013-09-05 06:50:00,72.5,70.4,29.95,ENE,76,0.0,0.0,93,0.00,,,0.00,Wunderground v.1.15,2013-09-05 10:50:00,
2013-09-05 07:00:00,72.3,70.2,29.95,ENE,76,0.0,0.0,93,0.00,,,0.00,Wunderground v.1.15,2013-09-05 11:00:00,
2013-09-05 07:10:00,72.3,70.2,29.95,ENE,76,0.0,0.0,93,0.00,,,0.00,Wunderground v.1.15,2013-09-05 11:10:00,
2013-09-05 07:20:00,72.1,70.0,29.95,ENE,76,0.0,0.0,93,0.00,,,0.00,Wunderground v.1.15,2013-09-05 11:20:00,
2013-09-05 07:30:00,72.0,69.9,29.96,ENE,76,0.0,0.0,93,0.00,,,0.00,Wunderground v.1.15,2013-09-05 11:30:00,
2013-09-05 07:40:00,72.0,69.9,29.96,ENE,76,0.0,0.0,93,0.00,,,0.00,Wunderground v.1.15,2013-09-05 11:40:00,
2013-09-05 07:50:00,72.1,70.0,29.96,ENE,76,0.0,0.0,93,0.00,,,0.00,Wunderground v.1.15,2013-09-05 11:50:00,
2013-09-05 08:00:00,72.3,70.2,29.97,ENE,76,0.0,0.0,93,0.00,,,0.00,Wunderground v.1.15,2013-09-05 12:00:00,
2013-09-05 08:10:00,73.0,70.9,29.97,ENE,76,0.0,0.0,93,0.00,,,0.00,Wunderground v.1.15,2013-09-05 12:10:00,
2013-09-05 08:20:00,73.9,71.7,29.97,ENE,76,0.0,0.0,93,0.00,,,0.00,Wunderground v.1.15,2013-09-05 12:20:00,
2013-09-05 08:30:00,74.7,72.2,29.98,ENE,76,0.0,0.0,92,0.00,,,0.00,Wunderground v.1.15,2013-09-05 12:30:00,
2013-09-05 08:40:00,75.6,72.5,29.98,ENE,76,0.0,1.0,90,0.00,,,0.00,Wunderground v.1.15,2013-09-05 12:40:00,
2013-09-05 08:50:00,76.8,72.6,29.98,SSE,160,0.0,2.0,87,0.00,,,0.00,Wunderground v.1.15,2013-09-05 12:50:00,
2013-09-05 09:00:00,77.9,73.4,29.98,NE,41,0.0,0.0,86,0.00,,,0.00,Wunderground v.1.15,2013-09-05 13:00:00,
2013-09-05 09:10:00,79.0,74.1,29.98,NE,41,0.0,0.0,85,0.00,,,0.00,Wunderground v.1.15,2013-09-05 13:10:00,
2013-09-05 09:20:00,80.3,74.7,29.98,SE,146,0.0,0.0,83,0.00,,,0.00,Wunderground v.1.15,2013-09-05 13:20:00,
2013-09-05 09:30:00,81.1,75.4,29.98,NE,50,1.0,1.0,83,0.00,,,0.00,Wunderground v.1.15,2013-09-05 13:30:00,
2013-09-05 09:40:00,81.6,74.8,29.98,SE,128,1.0,1.0,80,0.00,,,0.00,Wunderground v.1.15,2013-09-05 13:40:00,
2013-09-05 09:50:00,82.4,75.6,29.98,SSE,153,1.0,1.0,80,0.00,,,0.00,Wunderground v.1.15,2013-09-05 13:50:00,
2013-09-05 10:00:00,83.6,76.8,29.98,ENE,75,1.0,1.0,80,0.00,,,0.00,Wunderground v.1.15,2013-09-05 14:00:00,
2013-09-05 10:10:00,84.5,76.9,29.98,SE,139,1.0,1.0,78,0.00,,,0.00,Wunderground v.1.15,2013-09-05 14:10:00,
2013-09-05 10:20:00,85.5,77.1,29.98,ESE,116,0.0,0.0,76,0.00,,,0.00,Wunderground v.1.15,2013-09-05 14:20:00,
2013-09-05 10:30:00,85.7,76.5,29.98,ESE,115,1.0,2.0,74,0.00,,,0.00,Wunderground v.1.15,2013-09-05 14:30:00,
2013-09-05 10:40:00,85.7,76.0,29.98,ESE,108,1.0,1.0,73,0.00,,,0.00,Wunderground v.1.15,2013-09-05 14:40:00,
2013-09-05 10:50:00,85.7,76.5,29.98,East,86,1.0,1.0,74,0.00,,,0.00,Wunderground v.1.15,2013-09-05 14:50:00,
2013-09-05 11:00:00,85.9,75.8,29.99,ESE,103,1.0,3.0,72,0.00,,,0.00,Wunderground v.1.15,2013-09-05 15:00:00,
2013-09-05 11:10:00,87.2,76.6,29.99,SE,124,1.0,2.0,71,0.00,,,0.00,Wunderground v.1.15,2013-09-05 15:10:00,
2013-09-05 11:20:00,87.4,75.5,29.99,SE,144,1.0,1.0,68,0.00,,,0.00,Wunderground v.1.15,2013-09-05 15:20:00,
2013-09-05 11:30:00,87.0,75.2,29.99,ENE,76,1.0,1.0,68,0.00,,,0.00,Wunderground v.1.15,2013-09-05 15:30:00,
2013-09-05 11:41:00,86.7,75.7,29.99,ESE,116,1.0,1.0,70,0.00,,,0.00,Wunderground v.1.15,2013-09-05 15:41:00,
2013-09-05 11:50:00,87.2,76.6,29.99,NE,42,1.0,2.0,71,0.00,,,0.00,Wunderground v.1.15,2013-09-05 15:50:00,
2013-09-05 12:00:00,87.4,75.5,29.98,East,87,2.0,2.0,68,0.00,,,0.00,Wunderground v.1.15,2013-09-05 16:00:00,
2013-09-05 12:10:00,87.8,75.9,29.98,SE,138,1.0,1.0,68,0.00,,,0.00,Wunderground v.1.15,2013-09-05 16:10:00,
2013-09-05 12:20:00,88.4,76.5,29.98,SE,131,1.0,1.0,68,0.00,,,0.00,Wunderground v.1.15,2013-09-05 16:20:00,
2013-09-05 12:30:00,89.5,75.2,29.98,ENE,63,1.0,1.0,63,0.00,,,0.00,Wunderground v.1.15,2013-09-05 16:30:00,
2013-09-05 12:40:00,89.5,74.8,29.97,ESE,105,1.0,3.0,62,0.00,,,0.00,Wunderground v.1.15,2013-09-05 16:40:00,
2013-09-05 12:50:00,90.1,75.3,29.97,East,84,1.0,1.0,62,0.00,,,0.00,Wunderground v.1.15,2013-09-05 16:50:00,
2013-09-05 13:00:00,91.0,74.7,29.97,SE,142,1.0,2.0,59,0.00,,,0.00,Wunderground v.1.15,2013-09-05 17:00:00,
2013-09-05 13:10:00,90.1,74.8,29.97,NE,34,1.0,1.0,61,0.00,,,0.00,Wunderground v.1.15,2013-09-05 17:10:00,
2013-09-05 13:20:00,89.7,75.4,29.97,NNE,24,1.0,2.0,63,0.00,,,0.00,Wunderground v.1.15,2013-09-05 17:20:00,
2013-09-05 13:30:00,89.5,75.2,29.96,ESE,122,1.0,1.0,63,0.00,,,0.00,Wunderground v.1.15,2013-09-05 17:30:00,
2013-09-05 13:40:00,90.1,75.3,29.96,NE,56,1.0,1.0,62,0.00,,,0.00,Wunderground v.1.15,2013-09-05 17:40:00,
2013-09-05 13:50:00,90.5,74.7,29.96,SSE,157,1.0,1.0,60,0.00,,,0.00,Wunderground v.1.15,2013-09-05 17:50:00,
2013-09-05 14:00:00,90.7,74.4,29.95,ESE,123,1.0,1.0,59,0.00,,,0.00,Wunderground v.1.15,2013-09-05 18:00:00,
2013-09-05 14:10:00,91.0,73.1,29.95,SE,124,0.0,0.0,56,0.00,,,0.00,Wunderground v.1.15,2013-09-05 18:10:00,
2013-09-05 14:20:00,91.0,72.6,29.95,SE,146,1.0,2.0,55,0.00,,,0.00,Wunderground v.1.15,2013-09-05 18:20:00,
2013-09-05 14:30:00,91.0,72.0,29.94,ENE,61,1.0,1.0,54,0.00,,,0.00,Wunderground v.1.15,2013-09-05 18:30:00,
2013-09-05 14:40:00,91.4,74.0,29.93,NNE,18,0.0,0.0,57,0.00,,,0.00,Wunderground v.1.15,2013-09-05 18:40:00,
2013-09-05 14:50:00,91.8,72.8,29.93,ENE,69,1.0,1.0,54,0.00,,,0.00,Wunderground v.1.15,2013-09-05 18:50:00,
2013-09-05 15:00:00,91.4,73.0,29.93,SE,139,1.0,1.0,55,0.00,,,0.00,Wunderground v.1.15,2013-09-05 19:00:00,
2013-09-05 15:10:00,91.0,72.6,29.92,SE,139,0.0,0.0,55,0.00,,,0.00,Wunderground v.1.15,2013-09-05 19:10:00,
2013-09-05 15:20:00,91.4,73.0,29.92,SE,124,0.0,2.0,55,0.00,,,0.00,Wunderground v.1.15,2013-09-05 19:20:00,
2013-09-05 15:30:00,91.4,70.7,29.92,ESE,119,2.0,2.0,51,0.00,,,0.00,Wunderground v.1.15,2013-09-05 19:30:00,
2013-09-05 15:40:00,91.8,71.1,29.91,NW,307,0.0,0.0,51,0.00,,,0.00,Wunderground v.1.15,2013-09-05 19:40:00,
2013-09-05 15:50:00,91.6,69.7,29.91,SSW,197,1.0,1.0,49,0.00,,,0.00,Wunderground v.1.15,2013-09-05 19:50:00,
2013-09-05 16:00:00,91.6,72.6,29.90,NE,41,1.0,1.0,54,0.00,,,0.00,Wunderground v.1.15,2013-09-05 20:00:00,
2013-09-05 16:10:00,92.3,71.6,29.90,SE,139,0.0,0.0,51,0.00,,,0.00,Wunderground v.1.15,2013-09-05 20:10:00,
2013-09-05 16:20:00,92.7,71.3,29.90,SE,139,0.0,0.0,50,0.00,,,0.00,Wunderground v.1.15,2013-09-05 20:20:00,
2013-09-05 16:30:00,92.9,72.1,29.89,SE,141,0.0,0.0,51,0.00,,,0.00,Wunderground v.1.15,2013-09-05 20:30:00,
2013-09-05 16:40:00,93.2,73.0,29.89,SE,141,0.0,0.0,52,0.00,,,0.00,Wunderground v.1.15,2013-09-05 20:40:00,
2013-09-05 16:50:00,92.7,70.7,29.89,East,97,1.0,1.0,49,0.00,,,0.00,Wunderground v.1.15,2013-09-05 20:50:00,
2013-09-05 17:00:00,92.3,71.0,29.89,ENE,63,0.0,0.0,50,0.00,,,0.00,Wunderground v.1.15,2013-09-05 21:00:00,
2013-09-05 17:10:00,92.1,71.9,29.89,ESE,109,0.0,0.0,52,0.00,,,0.00,Wunderground v.1.15,2013-09-05 21:10:00,
2013-09-05 17:20:00,91.8,71.1,29.89,ESE,121,1.0,1.0,51,0.00,,,0.00,Wunderground v.1.15,2013-09-05 21:20:00,
2013-09-05 17:30:00,91.6,70.3,29.89,SSE,149,1.0,1.0,50,0.00,,,0.00,Wunderground v.1.15,2013-09-05 21:30:00,
2013-09-05 17:40:00,91.4,71.3,29.90,SSE,149,0.0,0.0,52,0.00,,,0.00,Wunderground v.1.15,2013-09-05 21:40:00,
2013-09-05 17:50:00,90.7,71.2,29.90,NE,39,0.0,0.0,53,0.00,,,0.00,Wunderground v.1.15,2013-09-05 21:50:00,
2013-09-05 18:00:00,90.1,70.7,29.90,ESE,105,0.0,0.0,53,0.00,,,0.00,Wunderground v.1.15,2013-09-05 22:00:00,
2013-09-05 18:10:00,89.7,71.4,29.89,ESE,105,0.0,0.0,55,0.00,,,0.00,Wunderground v.1.15,2013-09-05 22:10:00,
2013-09-05 18:20:00,89.0,71.8,29.89,ESE,105,0.0,0.0,57,0.00,,,0.00,Wunderground v.1.15,2013-09-05 22:20:00,
2013-09-05 18:30:00,88.4,73.2,29.90,ESE,105,0.0,0.0,61,0.00,,,0.00,Wunderground v.1.15,2013-09-05 22:30:00,
2013-09-05 18:40:00,87.8,73.2,29.89,ESE,105,0.0,0.0,62,0.00,,,0.00,Wunderground v.1.15,2013-09-05 22:40:00,
2013-09-05 18:50:00,87.4,74.2,29.89,ESE,105,0.0,0.0,65,0.00,,,0.00,Wunderground v.1.15,2013-09-05 22:50:00,
2013-09-05 19:00:00,87.4,75.1,29.89,ESE,105,0.0,0.0,67,0.00,,,0.00,Wunderground v.1.15,2013-09-05 23:00:00,
2013-09-05 19:10:00,87.4,76.0,29.90,ESE,105,0.0,0.0,69,0.00,,,0.00,Wunderground v.1.15,2013-09-05 23:10:00,
2013-09-05 19:20:00,87.4,76.0,29.90,ESE,105,0.0,0.0,69,0.00,,,0.00,Wunderground v.1.15,2013-09-05 23:20:00,
2013-09-05 19:30:00,87.4,76.4,29.90,ESE,105,0.0,0.0,70,0.00,,,0.00,Wunderground v.1.15,2013-09-05 23:30:00,
2013-09-05 19:40:00,87.0,76.0,29.92,ESE,105,0.0,0.0,70,0.00,,,0.00,Wunderground v.1.15,2013-09-05 23:40:00,
2013-09-05 19:50:00,86.5,76.0,29.92,ESE,105,0.0,0.0,71,0.00,,,0.00,Wunderground v.1.15,2013-09-05 23:50:00,
2013-09-05 20:00:00,85.9,75.8,29.92,ESE,105,0.0,0.0,72,0.00,,,0.00,Wunderground v.1.15,2013-09-06 00:00:00,
2013-09-05 20:10:00,85.5,76.3,29.93,ESE,105,0.0,0.0,74,0.00,,,0.00,Wunderground v.1.15,2013-09-06 00:10:00,
2013-09-05 20:20:00,85.1,75.5,29.93,ESE,105,0.0,0.0,73,0.00,,,0.00,Wunderground v.1.15,2013-09-06 00:20:00,
2013-09-05 20:30:00,84.9,74.9,29.94,ENE,59,1.0,1.0,72,0.00,,,0.00,Wunderground v.1.15,2013-09-06 00:30:00,
2013-09-05 20:40:00,84.5,72.8,29.93,ESE,109,1.0,1.0,68,0.00,,,0.00,Wunderground v.1.15,2013-09-06 00:40:00,
2013-09-05 20:50:00,84.1,72.4,29.93,ESE,109,0.0,0.0,68,0.00,,,0.00,Wunderground v.1.15,2013-09-06 00:50:00,
2013-09-05 21:00:00,83.8,72.5,29.93,ESE,109,0.0,0.0,69,0.00,,,0.00,Wunderground v.1.15,2013-09-06 01:00:00,
2013-09-05 21:10:00,83.0,72.6,29.93,ESE,109,0.0,0.0,71,0.00,,,0.00,Wunderground v.1.15,2013-09-06 01:10:00,
2013-09-05 21:20:00,82.6,72.7,29.93,ESE,109,0.0,0.0,72,0.00,,,0.00,Wunderground v.1.15,2013-09-06 01:20:00,
2013-09-05 21:30:00,82.2,73.1,29.93,ESE,109,0.0,0.0,74,0.00,,,0.00,Wunderground v.1.15,2013-09-06 01:30:00,
2013-09-05 21:40:00,81.8,73.5,29.93,ESE,109,0.0,0.0,76,0.00,,,0.00,Wunderground v.1.15,2013-09-06 01:40:00,
2013-09-05 21:50:00,81.6,72.9,29.93,ESE,109,0.0,0.0,75,0.00,,,0.00,Wunderground v.1.15,2013-09-06 01:50:00,
2013-09-05 22:00:00,81.2,72.9,29.94,ESE,109,0.0,0.0,76,0.00,,,0.00,Wunderground v.1.15,2013-09-06 02:00:00,
2013-09-05 22:10:00,80.9,71.8,29.95,East,93,0.0,0.0,74,0.00,,,0.00,Wunderground v.1.15,2013-09-06 02:10:00,
2013-09-05 22:20:00,80.7,72.0,29.95,East,93,0.0,0.0,75,0.00,,,0.00,Wunderground v.1.15,2013-09-06 02:20:00,
2013-09-05 22:30:00,80.5,72.2,29.95,East,93,0.0,0.0,76,0.00,,,0.00,Wunderground v.1.15,2013-09-06 02:30:00,
2013-09-05 22:40:00,80.3,72.0,29.95,East,93,0.0,0.0,76,0.00,,,0.00,Wunderground v.1.15,2013-09-06 02:40:00,
2013-09-05 22:50:00,80.3,72.0,29.95,East,93,0.0,0.0,76,0.00,,,0.00,Wunderground v.1.15,2013-09-06 02:50:00,
2013-09-05 23:00:00,80.1,71.8,29.95,East,93,0.0,0.0,76,0.00,,,0.00,Wunderground v.1.15,2013-09-06 03:00:00,
2013-09-05 23:10:00,79.9,71.7,29.95,East,93,0.0,0.0,76,0.00,,,0.00,Wunderground v.1.15,2013-09-06 03:10:00,
2013-09-05 23:20:00,79.8,71.9,29.95,East,93,0.0,0.0,77,0.00,,,0.00,Wunderground v.1.15,2013-09-06 03:20:00,
2013-09-05 23:30:00,79.4,71.9,29.95,East,93,0.0,0.0,78,0.00,,,0.00,Wunderground v.1.15,2013-09-06 03:30:00,
2013-09-05 23:40:00,79.2,71.7,29.95,East,93,0.0,0.0,78,0.00,,,0.00,Wunderground v.1.15,2013-09-06 03:40:00,
2013-09-05 23:50:00,79.0,71.9,29.95,East,93,0.0,0.0,79,0.00,,,0.00,Wunderground v.1.15,2013-09-06 03:50:00,